sensor_id;sensor_type;location;lat;lon;timestamp;pressure;altitude;pressure_sealevel;temperature;humidity
64192;BME280;50497;50.720;-2.084;2023-05-21T00:02:13;102791.72;;;11.10;100.00
64192;BME280;50497;50.720;-2.084;2023-05-21T00:04:42;102776.66;;;11.04;100.00
64192;BME280;50497;50.720;-2.084;2023-05-21T00:07:07;102747.50;;;10.86;100.00
64192;BME280;50497;50.720;-2.084;2023-05-21T00:09:33;102776.66;;;11.03;100.00
64192;BME280;50497;50.720;-2.084;2023-05-21T00:11:59;102772.38;;;10.93;100.00
64192;BME280;50497;50.720;-2.084;2023-05-21T00:14:24;102747.66;;;10.75;100.00
64192;BME280;50497;50.720;-2.084;2023-05-21T00:16:50;102779.44;;;10.97;100.00
64192;BME280;50497;50.720;-2.084;2023-05-21T00:19:15;102770.66;;;10.87;100.00
64192;BME280;50497;50.720;-2.084;2023-05-21T00:21:40;102796.50;;;10.91;100.00
64192;BME280;50497;50.720;-2.084;2023-05-21T00:24:06;102774.28;;;10.86;100.00
64192;BME280;50497;50.720;-2.084;2023-05-21T00:26:32;102771.75;;;10.73;100.00
64192;BME280;50497;50.720;-2.084;2023-05-21T00:28:58;102745.25;;;10.58;100.00
64192;BME280;50497;50.720;-2.084;2023-05-21T00:31:23;102756.81;;;10.59;100.00
64192;BME280;50497;50.720;-2.084;2023-05-21T00:33:48;102759.41;;;10.65;100.00
64192;BME280;50497;50.720;-2.084;2023-05-21T00:36:14;102770.13;;;10.65;100.00
64192;BME280;50497;50.720;-2.084;2023-05-21T00:38:41;102731.09;;;10.50;100.00
64192;BME280;50497;50.720;-2.084;2023-05-21T00:41:09;102758.59;;;10.60;100.00
64192;BME280;50497;50.720;-2.084;2023-05-21T00:43:36;102720.59;;;10.36;100.00
64192;BME280;50497;50.720;-2.084;2023-05-21T00:46:05;102737.56;;;10.35;100.00
64192;BME280;50497;50.720;-2.084;2023-05-21T00:48:31;102719.81;;;10.28;100.00
64192;BME280;50497;50.720;-2.084;2023-05-21T00:50:56;102740.16;;;10.40;100.00
64192;BME280;50497;50.720;-2.084;2023-05-21T00:53:22;102753.56;;;10.38;100.00
64192;BME280;50497;50.720;-2.084;2023-05-21T00:55:48;102759.84;;;10.34;100.00
64192;BME280;50497;50.720;-2.084;2023-05-21T00:58:14;102765.22;;;10.34;100.00
64192;BME280;50497;50.720;-2.084;2023-05-21T01:00:42;102770.63;;;10.29;100.00
64192;BME280;50497;50.720;-2.084;2023-05-21T01:03:07;102757.31;;;10.22;100.00
64192;BME280;50497;50.720;-2.084;2023-05-21T01:05:33;102764.47;;;10.23;100.00
64192;BME280;50497;50.720;-2.084;2023-05-21T01:07:59;102732.59;;;10.04;100.00
64192;BME280;50497;50.720;-2.084;2023-05-21T01:10:24;102733.53;;;10.00;100.00
64192;BME280;50497;50.720;-2.084;2023-05-21T01:12:51;102776.13;;;10.15;100.00
64192;BME280;50497;50.720;-2.084;2023-05-21T01:15:17;102758.59;;;9.94;100.00
64192;BME280;50497;50.720;-2.084;2023-05-21T01:17:43;102780.78;;;10.01;100.00
64192;BME280;50497;50.720;-2.084;2023-05-21T01:20:14;102770.13;;;9.98;100.00
64192;BME280;50497;50.720;-2.084;2023-05-21T01:22:50;102731.16;;;9.75;100.00
64192;BME280;50497;50.720;-2.084;2023-05-21T01:25:15;102734.88;;;9.65;100.00
64192;BME280;50497;50.720;-2.084;2023-05-21T01:27:41;102768.50;;;9.85;100.00
64192;BME280;50497;50.720;-2.084;2023-05-21T01:30:06;102768.59;;;9.75;100.00
64192;BME280;50497;50.720;-2.084;2023-05-21T01:32:47;102753.59;;;9.64;100.00
64192;BME280;50497;50.720;-2.084;2023-05-21T01:35:26;102766.91;;;9.67;100.00
64192;BME280;50497;50.720;-2.084;2023-05-21T01:40:44;102746.72;;;9.39;100.00
64192;BME280;50497;50.720;-2.084;2023-05-21T01:43:12;102784.88;;;9.52;100.00
64192;BME280;50497;50.720;-2.084;2023-05-21T01:45:40;102777.81;;;9.47;100.00
64192;BME280;50497;50.720;-2.084;2023-05-21T01:48:08;102795.63;;;9.44;100.00
64192;BME280;50497;50.720;-2.084;2023-05-21T01:50:34;102748.69;;;9.22;100.00
64192;BME280;50497;50.720;-2.084;2023-05-21T01:53:01;102770.00;;;9.28;100.00
64192;BME280;50497;50.720;-2.084;2023-05-21T01:55:28;102758.41;;;9.28;100.00
64192;BME280;50497;50.720;-2.084;2023-05-21T01:57:55;102768.16;;;9.33;100.00
64192;BME280;50497;50.720;-2.084;2023-05-21T02:00:21;102776.06;;;9.44;100.00
64192;BME280;50497;50.720;-2.084;2023-05-21T02:02:47;102765.56;;;9.24;100.00
64192;BME280;50497;50.720;-2.084;2023-05-21T02:05:13;102804.63;;;9.37;100.00
64192;BME280;50497;50.720;-2.084;2023-05-21T02:07:38;102776.25;;;9.24;100.00
64192;BME280;50497;50.720;-2.084;2023-05-21T02:10:05;102767.41;;;9.19;100.00
64192;BME280;50497;50.720;-2.084;2023-05-21T02:12:30;102803.75;;;9.35;100.00
64192;BME280;50497;50.720;-2.084;2023-05-21T02:14:56;102796.63;;;9.33;100.00
64192;BME280;50497;50.720;-2.084;2023-05-21T02:17:22;102794.09;;;9.22;100.00
64192;BME280;50497;50.720;-2.084;2023-05-21T02:19:48;102802.06;;;9.25;100.00
64192;BME280;50497;50.720;-2.084;2023-05-21T02:22:14;102758.63;;;9.03;100.00
64192;BME280;50497;50.720;-2.084;2023-05-21T02:24:39;102787.88;;;9.20;100.00
64192;BME280;50497;50.720;-2.084;2023-05-21T02:27:05;102746.19;;;9.00;100.00
64192;BME280;50497;50.720;-2.084;2023-05-21T02:29:31;102756.91;;;8.97;100.00
64192;BME280;50497;50.720;-2.084;2023-05-21T02:31:56;102752.44;;;8.99;100.00
64192;BME280;50497;50.720;-2.084;2023-05-21T02:34:22;102764.84;;;9.06;100.00
64192;BME280;50497;50.720;-2.084;2023-05-21T02:36:48;102773.69;;;9.12;100.00
64192;BME280;50497;50.720;-2.084;2023-05-21T02:39:17;102782.63;;;9.07;100.00
64192;BME280;50497;50.720;-2.084;2023-05-21T02:41:42;102779.09;;;9.02;100.00
64192;BME280;50497;50.720;-2.084;2023-05-21T02:44:08;102766.63;;;9.04;100.00
64192;BME280;50497;50.720;-2.084;2023-05-21T02:46:33;102772.91;;;9.00;100.00
64192;BME280;50497;50.720;-2.084;2023-05-21T02:48:59;102763.13;;;8.95;100.00
64192;BME280;50497;50.720;-2.084;2023-05-21T02:51:24;102710.84;;;8.71;100.00
64192;BME280;50497;50.720;-2.084;2023-05-21T02:53:49;102733.03;;;8.80;100.00
64192;BME280;50497;50.720;-2.084;2023-05-21T02:56:16;102741.91;;;8.82;100.00
64192;BME280;50497;50.720;-2.084;2023-05-21T02:58:42;102690.47;;;8.60;100.00
64192;BME280;50497;50.720;-2.084;2023-05-21T03:01:08;102716.16;;;8.74;100.00
64192;BME280;50497;50.720;-2.084;2023-05-21T03:03:33;102676.31;;;8.50;100.00
64192;BME280;50497;50.720;-2.084;2023-05-21T03:05:58;102665.69;;;8.47;100.00
64192;BME280;50497;50.720;-2.084;2023-05-21T03:08:24;102661.28;;;8.37;100.00
64192;BME280;50497;50.720;-2.084;2023-05-21T03:10:50;102639.94;;;8.37;100.00
64192;BME280;50497;50.720;-2.084;2023-05-21T03:13:15;102647.94;;;8.37;100.00
64192;BME280;50497;50.720;-2.084;2023-05-21T03:15:41;102655.88;;;8.51;100.00
64192;BME280;50497;50.720;-2.084;2023-05-21T03:18:07;102635.34;;;8.58;100.00
64192;BME280;50497;50.720;-2.084;2023-05-21T03:20:33;102632.78;;;8.48;100.00
64192;BME280;50497;50.720;-2.084;2023-05-21T03:22:58;102591.16;;;8.23;100.00
64192;BME280;50497;50.720;-2.084;2023-05-21T03:25:24;102591.06;;;8.35;100.00
64192;BME280;50497;50.720;-2.084;2023-05-21T03:27:50;102630.09;;;8.50;100.00
64192;BME280;50497;50.720;-2.084;2023-05-21T03:30:16;102622.09;;;8.50;100.00
64192;BME280;50497;50.720;-2.084;2023-05-21T03:32:42;102624.78;;;8.45;100.00
64192;BME280;50497;50.720;-2.084;2023-05-21T03:35:09;102616.81;;;8.38;100.00
64192;BME280;50497;50.720;-2.084;2023-05-21T03:37:34;102618.66;;;8.31;100.00
64192;BME280;50497;50.720;-2.084;2023-05-21T03:40:00;102622.16;;;8.35;100.00
64192;BME280;50497;50.720;-2.084;2023-05-21T03:42:25;102615.13;;;8.27;100.00
64192;BME280;50497;50.720;-2.084;2023-05-21T03:44:51;102585.94;;;8.07;100.00
64192;BME280;50497;50.720;-2.084;2023-05-21T03:47:16;102576.16;;;8.09;100.00
64192;BME280;50497;50.720;-2.084;2023-05-21T03:49:41;102584.16;;;8.06;100.00
64192;BME280;50497;50.720;-2.084;2023-05-21T03:52:07;102586.84;;;8.05;100.00
64192;BME280;50497;50.720;-2.084;2023-05-21T03:54:32;102624.06;;;8.22;100.00
64192;BME280;50497;50.720;-2.084;2023-05-21T03:56:57;102607.25;;;8.13;100.00
64192;BME280;50497;50.720;-2.084;2023-05-21T03:59:23;102617.94;;;8.09;100.00
64192;BME280;50497;50.720;-2.084;2023-05-21T04:01:48;102620.50;;;8.18;100.00
64192;BME280;50497;50.720;-2.084;2023-05-21T04:04:13;102620.53;;;8.15;100.00
64192;BME280;50497;50.720;-2.084;2023-05-21T04:06:39;102624.13;;;8.08;100.00
64192;BME280;50497;50.720;-2.084;2023-05-21T04:09:06;102601.13;;;7.94;100.00
64192;BME280;50497;50.720;-2.084;2023-05-21T04:11:31;102624.13;;;8.09;100.00
64192;BME280;50497;50.720;-2.084;2023-05-21T04:13:57;102633.94;;;8.04;100.00
64192;BME280;50497;50.720;-2.084;2023-05-21T04:16:22;102629.50;;;8.05;100.00
64192;BME280;50497;50.720;-2.084;2023-05-21T04:18:48;102626.81;;;8.05;100.00
64192;BME280;50497;50.720;-2.084;2023-05-21T04:21:14;102612.72;;;7.90;100.00
64192;BME280;50497;50.720;-2.084;2023-05-21T04:23:39;102587.00;;;7.78;100.00
64192;BME280;50497;50.720;-2.084;2023-05-21T04:26:05;102609.97;;;8.00;100.00
64192;BME280;50497;50.720;-2.084;2023-05-21T04:28:31;102595.81;;;7.88;100.00
64192;BME280;50497;50.720;-2.084;2023-05-21T04:30:57;102608.22;;;8.00;100.00
64192;BME280;50497;50.720;-2.084;2023-05-21T04:33:22;102627.75;;;8.04;100.00
64192;BME280;50497;50.720;-2.084;2023-05-21T04:35:51;102586.09;;;7.86;100.00
64192;BME280;50497;50.720;-2.084;2023-05-21T04:38:17;102592.28;;;7.91;100.00
64192;BME280;50497;50.720;-2.084;2023-05-21T04:40:48;102629.50;;;8.05;100.00
64192;BME280;50497;50.720;-2.084;2023-05-21T04:43:15;102617.00;;;8.10;100.00
64192;BME280;50497;50.720;-2.084;2023-05-21T04:45:41;102605.50;;;8.06;100.00
64192;BME280;50497;50.720;-2.084;2023-05-21T04:48:07;102604.59;;;8.07;100.00
64192;BME280;50497;50.720;-2.084;2023-05-21T04:50:33;102651.59;;;8.27;100.00
64192;BME280;50497;50.720;-2.084;2023-05-21T04:52:58;102645.31;;;8.29;100.00
64192;BME280;50497;50.720;-2.084;2023-05-21T04:55:24;102646.25;;;8.28;100.00
64192;BME280;50497;50.720;-2.084;2023-05-21T04:57:50;102623.16;;;8.23;100.00
64192;BME280;50497;50.720;-2.084;2023-05-21T05:00:16;102639.06;;;8.35;100.00
64192;BME280;50497;50.720;-2.084;2023-05-21T05:02:42;102653.22;;;8.45;100.00
64192;BME280;50497;50.720;-2.084;2023-05-21T05:05:07;102656.78;;;8.50;100.00
64192;BME280;50497;50.720;-2.084;2023-05-21T05:07:33;102665.66;;;8.50;100.00
64192;BME280;50497;50.720;-2.084;2023-05-21T05:09:58;102672.69;;;8.58;100.00
64192;BME280;50497;50.720;-2.084;2023-05-21T05:12:24;102663.84;;;8.56;100.00
64192;BME280;50497;50.720;-2.084;2023-05-21T05:14:49;102649.69;;;8.46;100.00
64192;BME280;50497;50.720;-2.084;2023-05-21T05:17:14;102681.56;;;8.63;100.00
64192;BME280;50497;50.720;-2.084;2023-05-21T05:19:40;102656.81;;;8.45;100.00
64192;BME280;50497;50.720;-2.084;2023-05-21T05:22:05;102679.84;;;8.56;100.00
64192;BME280;50497;50.720;-2.084;2023-05-21T05:24:31;102702.84;;;8.71;100.00
64192;BME280;50497;50.720;-2.084;2023-05-21T05:26:56;102691.22;;;8.75;100.00
64192;BME280;50497;50.720;-2.084;2023-05-21T05:29:22;102669.13;;;8.60;100.00
64192;BME280;50497;50.720;-2.084;2023-05-21T05:31:47;102683.22;;;8.76;100.00
64192;BME280;50497;50.720;-2.084;2023-05-21T05:34:13;102670.84;;;8.69;100.00
64192;BME280;50497;50.720;-2.084;2023-05-21T05:36:38;102703.56;;;8.88;100.00
64192;BME280;50497;50.720;-2.084;2023-05-21T05:39:03;102708.84;;;8.97;100.00
64192;BME280;50497;50.720;-2.084;2023-05-21T05:41:29;102685.88;;;8.76;100.00
64192;BME280;50497;50.720;-2.084;2023-05-21T05:43:55;102741.69;;;9.05;100.00
64192;BME280;50497;50.720;-2.084;2023-05-21T05:46:20;102711.56;;;8.90;100.00
64192;BME280;50497;50.720;-2.084;2023-05-21T05:48:46;102759.44;;;9.13;100.00
64192;BME280;50497;50.720;-2.084;2023-05-21T05:51:11;102738.06;;;9.13;100.00
64192;BME280;50497;50.720;-2.084;2023-05-21T05:53:37;102762.06;;;9.19;100.00
64192;BME280;50497;50.720;-2.084;2023-05-21T05:56:02;102767.38;;;9.22;100.00
64192;BME280;50497;50.720;-2.084;2023-05-21T05:58:28;102777.06;;;9.31;100.00
64192;BME280;50497;50.720;-2.084;2023-05-21T06:00:54;102752.31;;;9.15;100.00
64192;BME280;50497;50.720;-2.084;2023-05-21T06:03:19;102760.19;;;9.27;100.00
64192;BME280;50497;50.720;-2.084;2023-05-21T06:05:45;102791.88;;;9.64;100.00
64192;BME280;50497;50.720;-2.084;2023-05-21T06:08:10;102798.31;;;10.24;100.00
64192;BME280;50497;50.720;-2.084;2023-05-21T06:10:36;102801.59;;;10.46;100.00
64192;BME280;50497;50.720;-2.084;2023-05-21T06:13:01;102882.75;;;11.13;100.00
64192;BME280;50497;50.720;-2.084;2023-05-21T06:15:27;102925.63;;;11.13;100.00
64192;BME280;50497;50.720;-2.084;2023-05-21T06:17:52;102975.16;;;11.45;100.00
64192;BME280;50497;50.720;-2.084;2023-05-21T06:20:17;103021.75;;;11.38;100.00
64192;BME280;50497;50.720;-2.084;2023-05-21T06:22:43;103047.03;;;11.15;100.00
64192;BME280;50497;50.720;-2.084;2023-05-21T06:25:08;103090.66;;;11.30;100.00
64192;BME280;50497;50.720;-2.084;2023-05-21T06:27:34;103070.41;;;11.04;100.00
64192;BME280;50497;50.720;-2.084;2023-05-21T06:30:00;103055.53;;;11.48;100.00
64192;BME280;50497;50.720;-2.084;2023-05-21T06:32:25;103101.63;;;11.75;100.00
64192;BME280;50497;50.720;-2.084;2023-05-21T06:34:51;103134.44;;;12.53;100.00
64192;BME280;50497;50.720;-2.084;2023-05-21T06:37:19;103195.13;;;12.62;100.00
64192;BME280;50497;50.720;-2.084;2023-05-21T06:39:47;103252.94;;;13.39;100.00
64192;BME280;50497;50.720;-2.084;2023-05-21T06:42:13;103296.97;;;13.31;100.00
64192;BME280;50497;50.720;-2.084;2023-05-21T06:44:38;103364.19;;;13.33;100.00
64192;BME280;50497;50.720;-2.084;2023-05-21T06:47:03;103359.16;;;14.11;100.00
64192;BME280;50497;50.720;-2.084;2023-05-21T06:49:29;103370.59;;;14.21;100.00
64192;BME280;50497;50.720;-2.084;2023-05-21T06:51:54;103376.94;;;14.62;100.00
64192;BME280;50497;50.720;-2.084;2023-05-21T06:54:20;103348.06;;;14.27;100.00
64192;BME280;50497;50.720;-2.084;2023-05-21T06:56:45;103390.81;;;14.42;100.00
64192;BME280;50497;50.720;-2.084;2023-05-21T06:59:11;103362.88;;;14.48;100.00
64192;BME280;50497;50.720;-2.084;2023-05-21T07:01:36;103355.44;;;14.98;100.00
64192;BME280;50497;50.720;-2.084;2023-05-21T07:04:01;103363.06;;;14.79;100.00
64192;BME280;50497;50.720;-2.084;2023-05-21T07:06:27;103346.75;;;14.85;100.00
64192;BME280;50497;50.720;-2.084;2023-05-21T07:08:52;103366.41;;;14.90;100.00
64192;BME280;50497;50.720;-2.084;2023-05-21T07:11:18;103319.22;;;15.10;100.00
64192;BME280;50497;50.720;-2.084;2023-05-21T07:13:43;103242.03;;;15.06;100.00
64192;BME280;50497;50.720;-2.084;2023-05-21T07:16:09;103302.97;;;15.13;100.00
64192;BME280;50497;50.720;-2.084;2023-05-21T07:18:34;103292.25;;;15.10;100.00
64192;BME280;50497;50.720;-2.084;2023-05-21T07:20:59;103211.28;;;15.13;100.00
64192;BME280;50497;50.720;-2.084;2023-05-21T07:23:25;103216.78;;;15.73;100.00
64192;BME280;50497;50.720;-2.084;2023-05-21T07:25:50;102911.19;;;15.64;100.00
64192;BME280;50497;50.720;-2.084;2023-05-21T07:28:16;102696.91;;;15.21;100.00
64192;BME280;50497;50.720;-2.084;2023-05-21T07:30:42;102814.75;;;15.44;100.00
64192;BME280;50497;50.720;-2.084;2023-05-21T07:33:07;102756.50;;;16.80;100.00
64192;BME280;50497;50.720;-2.084;2023-05-21T07:35:33;102457.72;;;17.11;100.00
64192;BME280;50497;50.720;-2.084;2023-05-21T07:37:58;102179.97;;;17.48;100.00
64192;BME280;50497;50.720;-2.084;2023-05-21T07:40:24;102161.56;;;16.31;100.00
64192;BME280;50497;50.720;-2.084;2023-05-21T07:42:49;102225.63;;;16.47;100.00
64192;BME280;50497;50.720;-2.084;2023-05-21T07:45:15;102196.97;;;16.80;100.00
64192;BME280;50497;50.720;-2.084;2023-05-21T07:47:43;102186.31;;;16.58;100.00
64192;BME280;50497;50.720;-2.084;2023-05-21T07:50:09;102153.16;;;17.44;100.00
64192;BME280;50497;50.720;-2.084;2023-05-21T07:52:35;102076.78;;;16.88;100.00
64192;BME280;50497;50.720;-2.084;2023-05-21T07:55:00;101955.88;;;17.71;100.00
64192;BME280;50497;50.720;-2.084;2023-05-21T07:57:26;101935.88;;;18.20;100.00
64192;BME280;50497;50.720;-2.084;2023-05-21T07:59:52;101659.56;;;19.16;100.00
64192;BME280;50497;50.720;-2.084;2023-05-21T08:02:17;101508.75;;;19.76;100.00
64192;BME280;50497;50.720;-2.084;2023-05-21T08:04:43;101512.19;;;18.37;100.00
64192;BME280;50497;50.720;-2.084;2023-05-21T08:07:08;101503.75;;;18.94;100.00
64192;BME280;50497;50.720;-2.084;2023-05-21T08:09:34;101607.91;;;19.30;100.00
64192;BME280;50497;50.720;-2.084;2023-05-21T08:12:00;101613.66;;;19.64;100.00
64192;BME280;50497;50.720;-2.084;2023-05-21T08:14:26;101650.06;;;20.48;100.00
64192;BME280;50497;50.720;-2.084;2023-05-21T08:16:51;101687.16;;;20.12;100.00
64192;BME280;50497;50.720;-2.084;2023-05-21T08:19:16;101764.69;;;19.65;100.00
64192;BME280;50497;50.720;-2.084;2023-05-21T08:21:42;101641.69;;;19.39;100.00
64192;BME280;50497;50.720;-2.084;2023-05-21T08:24:07;101658.72;;;19.80;100.00
64192;BME280;50497;50.720;-2.084;2023-05-21T08:26:32;101620.53;;;18.64;100.00
64192;BME280;50497;50.720;-2.084;2023-05-21T08:28:59;101513.47;;;18.71;100.00
64192;BME280;50497;50.720;-2.084;2023-05-21T08:31:24;101575.50;;;19.79;100.00
64192;BME280;50497;50.720;-2.084;2023-05-21T08:33:51;101739.41;;;20.16;100.00
64192;BME280;50497;50.720;-2.084;2023-05-21T08:36:17;101838.47;;;20.62;100.00
64192;BME280;50497;50.720;-2.084;2023-05-21T08:38:43;101746.88;;;20.38;100.00
64192;BME280;50497;50.720;-2.084;2023-05-21T08:41:10;101557.41;;;20.52;100.00
64192;BME280;50497;50.720;-2.084;2023-05-21T08:43:36;101929.09;;;20.88;100.00
64192;BME280;50497;50.720;-2.084;2023-05-21T08:46:03;102057.16;;;20.32;100.00
64192;BME280;50497;50.720;-2.084;2023-05-21T08:48:29;102114.63;;;21.45;100.00
64192;BME280;50497;50.720;-2.084;2023-05-21T08:50:55;102142.22;;;20.74;100.00
64192;BME280;50497;50.720;-2.084;2023-05-21T08:53:21;102145.72;;;20.76;100.00
64192;BME280;50497;50.720;-2.084;2023-05-21T08:55:48;102155.56;;;18.93;100.00
64192;BME280;50497;50.720;-2.084;2023-05-21T08:58:14;102149.69;;;20.16;100.00
64192;BME280;50497;50.720;-2.084;2023-05-21T09:00:40;102157.41;;;20.91;100.00
64192;BME280;50497;50.720;-2.084;2023-05-21T09:03:05;102150.44;;;21.00;100.00
64192;BME280;50497;50.720;-2.084;2023-05-21T09:05:40;102151.00;;;21.18;100.00
64192;BME280;50497;50.720;-2.084;2023-05-21T09:08:09;102133.50;;;20.00;100.00
64192;BME280;50497;50.720;-2.084;2023-05-21T09:10:39;102146.22;;;21.73;100.00
64192;BME280;50497;50.720;-2.084;2023-05-21T09:13:05;102146.78;;;22.76;100.00
64192;BME280;50497;50.720;-2.084;2023-05-21T09:15:32;102139.91;;;21.21;100.00
64192;BME280;50497;50.720;-2.084;2023-05-21T09:17:57;102144.81;;;21.41;100.00
64192;BME280;50497;50.720;-2.084;2023-05-21T09:20:26;102145.81;;;22.16;100.00
64192;BME280;50497;50.720;-2.084;2023-05-21T09:22:52;102109.22;;;22.07;100.00
64192;BME280;50497;50.720;-2.084;2023-05-21T09:25:24;102136.50;;;21.94;100.00
64192;BME280;50497;50.720;-2.084;2023-05-21T09:27:53;102118.06;;;21.48;99.73
64192;BME280;50497;50.720;-2.084;2023-05-21T09:30:19;102145.66;;;19.66;100.00
64192;BME280;50497;50.720;-2.084;2023-05-21T09:32:45;102139.75;;;22.00;100.00
64192;BME280;50497;50.720;-2.084;2023-05-21T09:35:16;102137.16;;;21.08;100.00
64192;BME280;50497;50.720;-2.084;2023-05-21T09:37:42;102131.88;;;22.08;98.93
64192;BME280;50497;50.720;-2.084;2023-05-21T09:40:10;102100.50;;;20.61;100.00
64192;BME280;50497;50.720;-2.084;2023-05-21T09:42:43;102113.69;;;22.92;95.56
64192;BME280;50497;50.720;-2.084;2023-05-21T09:45:09;102101.47;;;21.77;99.10
64192;BME280;50497;50.720;-2.084;2023-05-21T09:47:41;102117.38;;;22.44;99.58
64192;BME280;50497;50.720;-2.084;2023-05-21T09:50:20;102089.72;;;22.01;100.00
64192;BME280;50497;50.720;-2.084;2023-05-21T09:52:47;102117.38;;;21.70;98.98
64192;BME280;50497;50.720;-2.084;2023-05-21T09:55:15;102111.81;;;22.09;96.37
64192;BME280;50497;50.720;-2.084;2023-05-21T09:57:42;102112.91;;;22.79;95.32
64192;BME280;50497;50.720;-2.084;2023-05-21T10:00:09;102097.53;;;22.42;88.71
64192;BME280;50497;50.720;-2.084;2023-05-21T10:02:43;102097.88;;;23.09;87.12
64192;BME280;50497;50.720;-2.084;2023-05-21T10:05:10;102110.31;;;23.24;95.15
64192;BME280;50497;50.720;-2.084;2023-05-21T10:07:40;102100.78;;;23.86;90.98
64192;BME280;50497;50.720;-2.084;2023-05-21T10:10:12;102076.06;;;23.88;87.01
64192;BME280;50497;50.720;-2.084;2023-05-21T10:12:40;102072.22;;;23.11;95.57
64192;BME280;50497;50.720;-2.084;2023-05-21T10:15:08;102101.81;;;22.93;98.60
64192;BME280;50497;50.720;-2.084;2023-05-21T10:17:36;102101.34;;;22.99;84.36
64192;BME280;50497;50.720;-2.084;2023-05-21T10:20:04;102065.31;;;22.23;87.49
64192;BME280;50497;50.720;-2.084;2023-05-21T10:22:30;102090.63;;;22.85;90.59
64192;BME280;50497;50.720;-2.084;2023-05-21T10:24:56;102087.47;;;23.70;89.25
64192;BME280;50497;50.720;-2.084;2023-05-21T10:27:21;102052.38;;;24.42;84.59
64192;BME280;50497;50.720;-2.084;2023-05-21T10:29:47;102081.66;;;25.56;91.09
64192;BME280;50497;50.720;-2.084;2023-05-21T10:32:14;102075.34;;;24.83;75.24
64192;BME280;50497;50.720;-2.084;2023-05-21T10:34:42;102071.84;;;25.02;80.50
64192;BME280;50497;50.720;-2.084;2023-05-21T10:37:07;102073.47;;;24.83;78.28
64192;BME280;50497;50.720;-2.084;2023-05-21T10:39:34;102067.88;;;24.20;92.78
64192;BME280;50497;50.720;-2.084;2023-05-21T10:47:17;102061.03;;;23.14;92.54
64192;BME280;50497;50.720;-2.084;2023-05-21T10:52:48;102075.50;;;24.49;90.17
64192;BME280;50497;50.720;-2.084;2023-05-21T10:55:31;102046.72;;;24.54;87.61
64192;BME280;50497;50.720;-2.084;2023-05-21T11:00:41;102037.44;;;24.57;91.79
64192;BME280;50497;50.720;-2.084;2023-05-21T11:03:10;102060.38;;;22.88;86.01
64192;BME280;50497;50.720;-2.084;2023-05-21T11:05:38;102064.63;;;23.71;82.42
64192;BME280;50497;50.720;-2.084;2023-05-21T11:08:24;102067.22;;;24.39;83.00
64192;BME280;50497;50.720;-2.084;2023-05-21T11:10:54;102061.75;;;23.05;88.46
64192;BME280;50497;50.720;-2.084;2023-05-21T11:13:22;102029.25;;;24.13;85.18
64192;BME280;50497;50.720;-2.084;2023-05-21T11:20:51;102018.41;;;25.38;76.85
64192;BME280;50497;50.720;-2.084;2023-05-21T11:23:20;102050.69;;;24.62;69.66
64192;BME280;50497;50.720;-2.084;2023-05-21T11:25:59;102034.59;;;23.83;84.79
64192;BME280;50497;50.720;-2.084;2023-05-21T11:28:32;102045.16;;;24.20;89.25
64192;BME280;50497;50.720;-2.084;2023-05-21T11:31:23;102046.50;;;24.58;88.89
64192;BME280;50497;50.720;-2.084;2023-05-21T11:39:39;102033.06;;;26.28;82.97
64192;BME280;50497;50.720;-2.084;2023-05-21T11:42:04;102032.47;;;26.44;76.35
64192;BME280;50497;50.720;-2.084;2023-05-21T11:47:05;102007.13;;;25.62;74.55
64192;BME280;50497;50.720;-2.084;2023-05-21T11:49:32;102022.84;;;24.99;76.33
64192;BME280;50497;50.720;-2.084;2023-05-21T11:51:59;101997.34;;;25.89;76.43
64192;BME280;50497;50.720;-2.084;2023-05-21T11:54:24;102042.28;;;23.77;94.47
64192;BME280;50497;50.720;-2.084;2023-05-21T11:56:51;102003.97;;;25.77;86.45
64192;BME280;50497;50.720;-2.084;2023-05-21T11:59:18;102031.19;;;25.59;86.84
64192;BME280;50497;50.720;-2.084;2023-05-21T12:01:43;102038.41;;;26.20;85.18
64192;BME280;50497;50.720;-2.084;2023-05-21T12:04:09;102012.69;;;26.41;80.38
64192;BME280;50497;50.720;-2.084;2023-05-21T12:06:41;102008.94;;;26.03;78.77
64192;BME280;50497;50.720;-2.084;2023-05-21T12:09:08;102008.38;;;25.18;79.62
64192;BME280;50497;50.720;-2.084;2023-05-21T12:11:37;102029.16;;;26.21;70.89
64192;BME280;50497;50.720;-2.084;2023-05-21T12:14:06;102030.44;;;26.07;72.88
64192;BME280;50497;50.720;-2.084;2023-05-21T12:16:33;102032.09;;;24.56;84.09
64192;BME280;50497;50.720;-2.084;2023-05-21T12:18:58;102029.97;;;25.92;86.89
64192;BME280;50497;50.720;-2.084;2023-05-21T12:21:26;102000.25;;;26.66;81.54
64192;BME280;50497;50.720;-2.084;2023-05-21T12:23:53;102024.03;;;25.87;71.89
64192;BME280;50497;50.720;-2.084;2023-05-21T12:26:18;102026.75;;;23.67;94.10
64192;BME280;50497;50.720;-2.084;2023-05-21T12:28:44;102028.63;;;23.66;91.80
64192;BME280;50497;50.720;-2.084;2023-05-21T12:31:15;101993.19;;;24.20;77.47
64192;BME280;50497;50.720;-2.084;2023-05-21T12:33:43;102008.31;;;24.77;89.19
64192;BME280;50497;50.720;-2.084;2023-05-21T12:36:20;101984.75;;;24.86;75.96
64192;BME280;50497;50.720;-2.084;2023-05-21T12:38:46;102004.38;;;24.70;88.57
64192;BME280;50497;50.720;-2.084;2023-05-21T12:41:11;101978.31;;;24.33;80.83
64192;BME280;50497;50.720;-2.084;2023-05-21T12:43:37;102005.44;;;25.31;94.07
64192;BME280;50497;50.720;-2.084;2023-05-21T12:46:03;101986.53;;;24.12;86.81
64192;BME280;50497;50.720;-2.084;2023-05-21T12:48:28;102006.50;;;24.87;87.02
64192;BME280;50497;50.720;-2.084;2023-05-21T12:50:54;102005.94;;;23.43;87.85
64192;BME280;50497;50.720;-2.084;2023-05-21T12:53:19;101984.97;;;23.87;95.61
64192;BME280;50497;50.720;-2.084;2023-05-21T12:55:44;102011.28;;;23.45;89.44
64192;BME280;50497;50.720;-2.084;2023-05-21T12:58:12;102007.00;;;23.86;94.05
64192;BME280;50497;50.720;-2.084;2023-05-21T13:00:40;102005.09;;;25.24;100.00